Time;durP1;ratioP1;P1;durP2;ratioP2;P2;SDS_P1;SDS_P2;PMS_P1;PMS_P2;Temp;Humidity;BMP_temperature;BMP_pressure;BME280_temperature;BME280_humidity;BME280_pressure;Samples;Min_cycle;Max_cycle;Signal;HPM_P1;HPM_P2
2022/06/06 00:00:51;;;;;;;4.03;3.67;;;20.30;96.70;;;;;;7371791;19;20363;-78
2022/06/06 00:03:19;;;;;;;4.80;4.00;;;20.20;96.60;;;;;;7374599;19;21584;-79
2022/06/06 00:05:47;;;;;;;3.92;3.63;;;20.20;97.00;;;;;;7373363;19;20344;-78
2022/06/06 00:08:13;;;;;;;3.60;3.30;;;20.20;97.10;;;;;;7376320;19;20360;-79
2022/06/06 00:10:39;;;;;;;3.72;3.42;;;20.20;97.20;;;;;;7373280;19;20341;-79
2022/06/06 00:13:06;;;;;;;4.15;3.85;;;20.20;97.20;;;;;;7375269;19;20344;-78
2022/06/06 00:15:32;;;;;;;3.55;3.25;;;20.20;97.60;;;;;;7374078;19;20328;-78
2022/06/06 00:17:58;;;;;;;3.72;3.42;;;20.20;97.60;;;;;;7374950;19;20375;-78
2022/06/06 00:20:23;;;;;;;3.90;3.60;;;20.20;97.10;;;;;;7374426;19;20342;-78
2022/06/06 00:22:49;;;;;;;3.60;3.30;;;20.20;97.50;;;;;;7372676;19;20321;-78
2022/06/06 00:25:15;;;;;;;3.70;3.40;;;20.20;97.50;;;;;;7374230;19;20365;-78
2022/06/06 00:27:41;;;;;;;4.18;3.80;;;20.20;97.10;;;;;;7354183;19;20377;-78
2022/06/06 00:30:07;;;;;;;3.90;3.60;;;20.20;98.40;;;;;;7378612;19;20317;-78
2022/06/06 00:35:20;;;;;;;3.72;3.42;;;20.20;98.20;;;;;;7376391;19;20353;-79
2022/06/06 00:37:45;;;;;;;3.77;3.47;;;20.20;98.40;;;;;;7373984;19;20344;-79
2022/06/06 00:40:11;;;;;;;4.22;3.85;;;20.20;98.70;;;;;;7377281;19;20431;-79
2022/06/06 00:42:38;;;;;;;3.80;3.50;;;20.20;98.60;;;;;;7373646;19;20345;-79
2022/06/06 00:45:38;;;;;;;3.60;3.30;;;20.20;99.00;;;;;;7373560;19;20348;-78
2022/06/06 00:48:24;;;;;;;3.60;3.30;;;20.20;99.10;;;;;;7279444;19;2004223;-78
2022/06/06 00:50:51;;;;;;;4.05;3.45;;;20.20;98.90;;;;;;7276989;19;2004445;-77
2022/06/06 00:53:20;;;;;;;3.60;3.30;;;20.20;98.70;;;;;;7380279;19;20325;-79
2022/06/06 00:55:48;;;;;;;3.60;3.30;;;20.20;98.80;;;;;;7381515;19;20692;-78
2022/06/06 00:58:18;;;;;;;3.70;3.30;;;20.20;99.30;;;;;;7378222;19;20702;-78
2022/06/06 01:00:44;;;;;;;3.70;3.40;;;20.20;99.10;;;;;;7375494;19;20831;-78
2022/06/06 01:03:10;;;;;;;3.83;3.53;;;20.10;99.30;;;;;;7378925;19;20345;-78
2022/06/06 01:05:36;;;;;;;4.68;4.28;;;20.10;99.30;;;;;;7379520;19;20331;-80
2022/06/06 01:08:03;;;;;;;4.73;3.70;;;20.00;99.40;;;;;;7381455;19;20875;-79
2022/06/06 01:10:29;;;;;;;3.75;3.45;;;20.00;99.90;;;;;;7380686;19;20468;-81
2022/06/06 01:12:54;;;;;;;3.60;3.30;;;20.00;99.90;;;;;;7376961;19;21207;-78
2022/06/06 01:15:21;;;;;;;3.70;3.40;;;20.10;99.90;;;;;;7378632;19;20400;-79
2022/06/06 01:18:05;;;;;;;3.33;3.10;;;20.00;99.90;;;;;;7376181;19;20435;-78
2022/06/06 01:20:46;;;;;;;3.60;3.30;;;20.00;99.90;;;;;;7382202;19;20377;-78
2022/06/06 01:23:43;;;;;;;3.10;2.90;;;20.00;99.90;;;;;;7274277;19;2019087;-79
2022/06/06 01:26:46;;;;;;;3.20;2.95;;;20.00;99.90;;;;;;7275242;19;2004465;-79
2022/06/06 01:29:29;;;;;;;3.03;2.83;;;20.00;99.90;;;;;;7277414;19;2019918;-79
2022/06/06 01:32:04;;;;;;;3.75;3.45;;;20.10;99.90;;;;;;7377499;19;20348;-80
2022/06/06 01:34:34;;;;;;;3.60;3.30;;;20.10;99.90;;;;;;7381320;19;20352;-79
2022/06/06 01:37:00;;;;;;;3.05;2.85;;;20.00;99.90;;;;;;7378920;19;20437;-79
2022/06/06 01:39:27;;;;;;;3.17;2.97;;;20.00;99.90;;;;;;7381502;19;21275;-79
2022/06/06 01:42:09;;;;;;;3.42;3.20;;;20.00;99.90;;;;;;7376566;19;20356;-79
2022/06/06 01:44:41;;;;;;;3.40;3.20;;;19.90;99.90;;;;;;7380847;19;20762;-79
2022/06/06 01:47:12;;;;;;;3.70;3.50;;;19.90;99.90;;;;;;7376106;19;20333;-79
2022/06/06 01:49:38;;;;;;;3.07;2.87;;;20.00;99.90;;;;;;7381301;19;20328;-79
2022/06/06 01:52:07;;;;;;;3.50;3.20;;;20.00;99.90;;;;;;7365112;19;20320;-79
2022/06/06 01:54:32;;;;;;;3.13;2.92;;;20.00;99.90;;;;;;7380089;19;20866;-80
2022/06/06 01:56:59;;;;;;;3.20;3.00;;;20.00;99.90;;;;;;7376358;19;20340;-79
2022/06/06 01:59:24;;;;;;;3.80;2.70;;;20.00;99.90;;;;;;7381215;19;20320;-79
2022/06/06 02:01:52;;;;;;;3.80;3.50;;;20.00;99.90;;;;;;7373888;19;20345;-78
2022/06/06 02:04:18;;;;;;;3.13;2.85;;;20.00;99.90;;;;;;7380470;19;20320;-79
2022/06/06 02:06:44;;;;;;;3.53;3.25;;;20.00;99.90;;;;;;7378759;19;20328;-79
2022/06/06 02:09:09;;;;;;;3.80;3.50;;;20.00;99.90;;;;;;7379378;19;20376;-80
2022/06/06 02:11:35;;;;;;;3.47;3.17;;;20.00;99.90;;;;;;7376732;19;20340;-79
2022/06/06 02:14:00;;;;;;;3.87;3.57;;;20.00;99.90;;;;;;7378188;19;20369;-79
2022/06/06 02:16:26;;;;;;;3.00;2.80;;;19.90;99.90;;;;;;7374411;19;20333;-79
2022/06/06 02:18:51;;;;;;;3.63;3.33;;;19.80;99.90;;;;;;7380720;19;20329;-78
2022/06/06 02:21:17;;;;;;;4.15;3.78;;;19.80;99.90;;;;;;7374753;19;20871;-79
2022/06/06 02:23:43;;;;;;;5.43;3.60;;;19.90;99.90;;;;;;7377203;19;20336;-79
2022/06/06 02:26:09;;;;;;;3.50;3.20;;;19.90;99.90;;;;;;7375282;19;20344;-79
2022/06/06 02:28:36;;;;;;;3.10;2.90;;;19.90;99.90;;;;;;7373592;19;20550;-79
2022/06/06 02:31:02;;;;;;;4.57;3.40;;;19.90;99.90;;;;;;7376963;19;20377;-79
2022/06/06 02:33:28;;;;;;;2.90;2.70;;;19.90;99.90;;;;;;7378080;19;20340;-79
2022/06/06 02:35:54;;;;;;;3.70;3.40;;;19.90;99.90;;;;;;7376080;19;20377;-81
2022/06/06 02:38:19;;;;;;;4.40;4.00;;;20.00;99.90;;;;;;7378184;19;20316;-79
2022/06/06 02:40:45;;;;;;;4.43;4.03;;;20.00;99.90;;;;;;7376292;19;20358;-78
2022/06/06 02:43:11;;;;;;;3.30;3.00;;;20.00;99.90;;;;;;7375771;19;20416;-78
2022/06/06 02:45:37;;;;;;;3.40;3.10;;;20.00;99.90;;;;;;7378264;19;20382;-78
2022/06/06 02:48:02;;;;;;;4.13;3.73;;;20.00;99.90;;;;;;7376358;19;20337;-78
2022/06/06 02:50:29;;;;;;;3.28;2.97;;;20.00;99.90;;;;;;7378993;19;20327;-79
2022/06/06 02:52:55;;;;;;;3.30;3.00;;;20.00;99.90;;;;;;7375693;19;20351;-79
2022/06/06 02:55:21;;;;;;;3.83;3.42;;;20.00;99.90;;;;;;7376201;19;20459;-78
2022/06/06 02:57:48;;;;;;;4.30;3.90;;;20.00;99.90;;;;;;7377523;19;20378;-79
2022/06/06 03:00:20;;;;;;;4.47;4.07;;;20.00;99.90;;;;;;7377879;19;20337;-78
2022/06/06 03:02:46;;;;;;;4.47;4.07;;;19.90;99.90;;;;;;7373564;19;20904;-79
2022/06/06 03:05:12;;;;;;;3.90;3.60;;;19.90;99.90;;;;;;7378414;19;20328;-78
2022/06/06 03:08:02;;;;;;;3.77;3.47;;;19.80;99.90;;;;;;7375696;19;21065;-79
2022/06/06 03:10:59;;;;;;;3.60;3.30;;;19.80;99.90;;;;;;7275250;19;2004389;-79
2022/06/06 03:13:43;;;;;;;4.28;3.85;;;19.80;99.90;;;;;;7275100;19;2004574;-79
2022/06/06 03:22:29;;;;;;;4.30;4.00;;;19.70;99.90;;;;;;7272833;19;2004324;-79
2022/06/06 03:25:08;;;;;;;4.40;4.10;;;19.60;99.90;;;;;;7354618;19;20464;-79
2022/06/06 03:28:01;;;;;;;5.20;4.80;;;19.50;99.90;;;;;;7374185;19;20364;-79
2022/06/06 03:30:59;;;;;;;4.70;4.30;;;19.40;99.90;;;;;;7274522;19;2004389;-79
2022/06/06 03:33:48;;;;;;;5.38;4.88;;;19.30;99.90;;;;;;7275476;19;2020044;-79
2022/06/06 03:36:21;;;;;;;4.90;4.50;;;19.20;99.90;;;;;;7275247;19;2004847;-78
2022/06/06 03:38:55;;;;;;;4.87;4.47;;;19.10;99.90;;;;;;7376864;19;21087;-79
2022/06/06 03:41:20;;;;;;;4.93;4.53;;;19.10;99.90;;;;;;7375206;19;20320;-79
2022/06/06 03:44:15;;;;;;;5.50;5.00;;;19.00;99.90;;;;;;7364321;19;21259;-79
2022/06/06 03:47:04;;;;;;;5.40;4.90;;;18.90;99.90;;;;;;7271970;19;2004443;-79
2022/06/06 03:49:41;;;;;;;5.85;5.35;;;18.70;99.90;;;;;;7273638;19;2004741;-78
2022/06/06 03:52:40;;;;;;;5.78;5.28;;;18.60;99.90;;;;;;7368818;19;20336;-80
2022/06/06 03:55:24;;;;;;;6.20;5.60;;;18.50;99.90;;;;;;7272658;19;2004548;-81
2022/06/06 03:57:49;;;;;;;6.25;5.75;;;18.50;99.90;;;;;;7275571;19;2016193;-81
2022/06/06 04:00:15;;;;;;;5.80;5.30;;;18.50;99.90;;;;;;7377282;19;20327;-81
2022/06/06 04:02:44;;;;;;;6.00;5.50;;;18.50;99.90;;;;;;7373720;19;20930;-80
2022/06/06 04:05:15;;;;;;;6.03;5.53;;;18.50;99.90;;;;;;7375266;19;20927;-81
2022/06/06 04:07:40;;;;;;;6.95;6.35;;;18.50;99.90;;;;;;7376615;19;20873;-79
2022/06/06 04:10:07;;;;;;;6.88;6.28;;;18.50;99.90;;;;;;7376402;19;20340;-81
2022/06/06 04:12:49;;;;;;;6.80;6.20;;;18.40;99.90;;;;;;7375280;19;20372;-81
2022/06/06 04:15:44;;;;;;;7.68;6.97;;;18.40;99.90;;;;;;7376170;19;20353;-83
2022/06/06 04:18:32;;;;;;;6.80;6.20;;;18.40;99.90;;;;;;7275005;19;2019991;-81
2022/06/06 04:21:12;;;;;;;7.78;7.07;;;18.40;99.90;;;;;;7276094;19;2004406;-81
2022/06/06 04:23:55;;;;;;;6.82;6.15;;;18.30;99.90;;;;;;7382897;19;20708;-81
2022/06/06 04:26:27;;;;;;;7.43;6.57;;;18.40;99.90;;;;;;7382967;19;20373;-83
2022/06/06 04:29:13;;;;;;;7.90;6.80;;;18.40;99.90;;;;;;7384317;19;20349;-80
2022/06/06 04:32:00;;;;;;;8.27;7.50;;;18.40;99.90;;;;;;7378599;19;21026;-80
2022/06/06 04:34:50;;;;;;;8.45;7.65;;;18.50;99.90;;;;;;7382879;19;21056;-81
2022/06/06 04:37:28;;;;;;;7.80;7.10;;;18.40;99.90;;;;;;7280396;19;2004525;-82
2022/06/06 04:40:19;;;;;;;8.32;7.53;;;18.40;99.90;;;;;;7383989;19;20355;-81
2022/06/06 04:42:55;;;;;;;7.63;7.03;;;18.40;99.90;;;;;;7379697;19;20352;-81
2022/06/06 04:45:21;;;;;;;7.23;6.53;;;18.40;99.90;;;;;;7382666;19;20368;-81
2022/06/06 04:47:46;;;;;;;7.68;6.97;;;18.40;99.90;;;;;;7385248;19;20369;-80
2022/06/06 04:50:17;;;;;;;8.27;6.17;;;18.30;99.90;;;;;;7388852;19;20321;-80
2022/06/06 04:52:46;;;;;;;6.88;5.97;;;18.30;99.90;;;;;;7393761;19;20374;-81
2022/06/06 04:55:11;;;;;;;6.65;6.05;;;18.30;99.90;;;;;;7396159;19;20865;-81
2022/06/06 04:57:40;;;;;;;5.87;5.30;;;18.20;99.90;;;;;;7391759;19;20348;-81
2022/06/06 05:00:07;;;;;;;7.07;6.20;;;18.30;99.90;;;;;;7395423;19;20345;-80
2022/06/06 05:02:36;;;;;;;5.93;5.32;;;18.30;99.90;;;;;;7382811;19;22296;-82
2022/06/06 05:05:02;;;;;;;5.90;5.40;;;18.40;99.90;;;;;;7384329;19;20335;-80
2022/06/06 05:08:01;;;;;;;5.28;4.78;;;18.50;99.90;;;;;;7387052;19;20323;-80
2022/06/06 05:10:53;;;;;;;4.78;4.38;;;18.50;99.90;;;;;;7285429;19;2004397;-83
2022/06/06 05:13:37;;;;;;;5.80;5.28;;;18.60;99.90;;;;;;7285964;19;2020020;-79
2022/06/06 05:16:17;;;;;;;5.57;5.07;;;18.50;99.90;;;;;;7280406;19;2004477;-83
2022/06/06 05:18:57;;;;;;;6.95;5.63;;;18.60;99.90;;;;;;7383950;19;20361;-82
2022/06/06 05:21:40;;;;;;;5.43;5.00;;;18.60;99.90;;;;;;7385107;19;20356;-81
2022/06/06 05:24:24;;;;;;;6.22;5.68;;;18.70;99.90;;;;;;7384044;19;20416;-81
2022/06/06 05:27:27;;;;;;;6.15;5.55;;;18.60;99.90;;;;;;7385421;19;20348;-84
2022/06/06 05:30:11;;;;;;;5.40;4.90;;;18.50;99.90;;;;;;7281553;19;2004582;-82
2022/06/06 05:32:49;;;;;;;6.22;5.68;;;18.60;99.90;;;;;;7384459;19;20463;-80
2022/06/06 05:35:20;;;;;;;6.80;5.25;;;18.50;99.90;;;;;;7384457;19;20336;-80
2022/06/06 05:38:02;;;;;;;5.30;4.87;;;18.40;99.90;;;;;;7382502;19;20363;-87
2022/06/06 05:40:38;;;;;;;4.82;4.43;;;18.30;99.90;;;;;;7382845;19;20926;-80
2022/06/06 05:43:15;;;;;;;4.55;4.13;;;18.30;99.90;;;;;;7385618;19;20356;-81
2022/06/06 05:45:56;;;;;;;4.05;3.75;;;18.30;99.90;;;;;;7390574;19;20353;-79
2022/06/06 05:48:24;;;;;;;4.30;4.00;;;18.30;99.90;;;;;;7393228;19;20328;-78
2022/06/06 05:51:02;;;;;;;3.40;3.10;;;18.20;99.90;;;;;;7394180;19;20314;-79
2022/06/06 05:53:42;;;;;;;4.60;4.20;;;18.30;99.90;;;;;;7393802;19;20632;-79
2022/06/06 05:56:35;;;;;;;3.80;3.50;;;18.30;99.90;;;;;;7392775;19;20352;-81
2022/06/06 05:59:12;;;;;;;4.15;3.80;;;18.30;99.90;;;;;;7292122;19;2004754;-85
2022/06/06 06:01:49;;;;;;;3.55;3.28;;;18.40;99.90;;;;;;7282465;19;2004448;-81
2022/06/06 06:04:31;;;;;;;3.22;3.03;;;18.40;99.90;;;;;;7283670;19;2020100;-81
2022/06/06 06:07:06;;;;;;;3.70;3.40;;;18.40;99.90;;;;;;7279869;19;2004875;-81
2022/06/06 06:09:57;;;;;;;3.97;3.58;;;18.40;99.90;;;;;;7385598;19;20352;-83
2022/06/06 06:12:48;;;;;;;3.93;3.63;;;18.40;99.90;;;;;;7277788;19;2005008;-79
2022/06/06 06:15:29;;;;;;;3.87;3.57;;;18.50;99.90;;;;;;7381860;19;20321;-79
2022/06/06 06:17:55;;;;;;;4.00;3.63;;;18.60;99.90;;;;;;7277676;19;2004403;-79
2022/06/06 06:20:25;;;;;;;4.40;4.00;;;18.60;99.90;;;;;;7381227;19;20408;-79
2022/06/06 06:22:56;;;;;;;3.90;3.60;;;18.60;99.90;;;;;;7379022;19;20367;-81
2022/06/06 06:25:23;;;;;;;3.55;3.05;;;18.60;99.90;;;;;;7378588;19;20416;-82
2022/06/06 06:27:48;;;;;;;3.65;3.35;;;18.70;99.90;;;;;;7379631;19;20334;-82
2022/06/06 06:30:14;;;;;;;3.83;3.53;;;18.80;99.90;;;;;;7379059;19;20875;-79
2022/06/06 06:33:12;;;;;;;3.47;3.17;;;18.70;99.90;;;;;;7378577;19;20337;-80
2022/06/06 06:35:44;;;;;;;3.73;3.37;;;18.80;99.90;;;;;;7278205;19;2004359;-81
2022/06/06 06:38:19;;;;;;;3.50;3.20;;;18.90;99.90;;;;;;7381479;19;20336;-81
2022/06/06 06:41:12;;;;;;;3.67;3.33;;;19.00;99.90;;;;;;7377896;19;20383;-81
2022/06/06 06:43:58;;;;;;;3.50;3.20;;;18.80;99.90;;;;;;7274043;19;2004301;-80
2022/06/06 06:46:41;;;;;;;3.92;3.63;;;18.70;99.90;;;;;;7273093;19;2019596;-80
2022/06/06 06:49:10;;;;;;;4.63;3.72;;;18.80;99.90;;;;;;7380175;19;20863;-81
2022/06/06 06:51:58;;;;;;;3.88;3.58;;;18.90;99.90;;;;;;7372769;19;20357;-81
2022/06/06 06:54:39;;;;;;;3.70;3.40;;;19.00;99.90;;;;;;7365904;19;20395;-80
2022/06/06 06:57:29;;;;;;;4.05;3.65;;;19.10;99.90;;;;;;7376375;19;20942;-80
2022/06/06 07:00:10;;;;;;;3.47;3.17;;;19.10;99.90;;;;;;7276283;19;2004430;-84
2022/06/06 07:09:06;;;;;;;4.05;3.75;;;19.20;99.90;;;;;;7347347;19;20436;-78
2022/06/06 07:11:49;;;;;;;3.47;3.20;;;19.10;99.90;;;;;;7254586;19;2004509;-78
2022/06/06 07:14:29;;;;;;;3.60;3.30;;;19.30;99.90;;;;;;7258053;19;2019713;-79
2022/06/06 07:16:56;;;;;;;3.88;3.28;;;19.40;99.90;;;;;;7359472;19;20381;-78
2022/06/06 07:19:28;;;;;;;3.57;3.27;;;19.50;99.90;;;;;;7360965;19;20332;-79
2022/06/06 07:21:54;;;;;;;3.70;3.40;;;19.70;99.90;;;;;;7257772;19;2016965;-79
2022/06/06 07:24:20;;;;;;;3.92;3.63;;;19.90;99.90;;;;;;7376439;19;20364;-80
2022/06/06 07:26:46;;;;;;;4.72;4.32;;;20.00;99.90;;;;;;7374409;19;20412;-81
2022/06/06 07:29:14;;;;;;;5.33;4.83;;;20.10;99.90;;;;;;7378676;19;20417;-79
2022/06/06 07:32:05;;;;;;;4.72;4.32;;;20.10;99.90;;;;;;7371306;19;20356;-79
2022/06/06 07:34:41;;;;;;;4.80;4.30;;;20.10;99.90;;;;;;7275456;19;2004329;-82
2022/06/06 07:37:16;;;;;;;5.88;5.35;;;20.10;99.90;;;;;;7374778;19;20363;-79
2022/06/06 07:40:04;;;;;;;11.20;9.73;;;20.00;99.90;;;;;;7376961;19;20336;-79
2022/06/06 07:42:56;;;;;;;5.23;4.73;;;20.00;99.90;;;;;;7271272;19;2004321;-79
2022/06/06 07:45:31;;;;;;;4.93;4.43;;;20.00;99.90;;;;;;7375008;19;20851;-79
2022/06/06 07:48:11;;;;;;;5.87;5.10;;;20.20;99.90;;;;;;7376729;19;20436;-80
2022/06/06 07:50:51;;;;;;;5.80;5.30;;;20.40;99.90;;;;;;7378341;19;20860;-80
2022/06/06 07:53:16;;;;;;;5.45;4.95;;;20.50;99.90;;;;;;7375834;19;20357;-82
2022/06/06 07:55:52;;;;;;;5.47;4.97;;;20.40;99.90;;;;;;7375124;19;21292;-80
2022/06/06 07:58:32;;;;;;;6.22;5.72;;;20.70;99.90;;;;;;7376103;19;20356;-79
2022/06/06 08:01:05;;;;;;;6.68;5.97;;;20.80;99.90;;;;;;7373930;19;21053;-79
2022/06/06 08:03:45;;;;;;;6.43;5.82;;;21.00;99.90;;;;;;7373921;19;20958;-82
2022/06/06 08:06:37;;;;;;;6.23;5.73;;;21.30;99.90;;;;;;7375000;19;20376;-78
2022/06/06 08:09:16;;;;;;;6.70;6.10;;;21.50;99.90;;;;;;7377292;19;20356;-82
2022/06/06 08:12:03;;;;;;;6.53;5.90;;;21.70;99.90;;;;;;7375540;19;20379;-83
2022/06/06 08:14:49;;;;;;;14.23;8.47;;;21.80;99.90;;;;;;7275802;19;2019758;-79
2022/06/06 08:17:42;;;;;;;6.70;6.10;;;22.10;99.90;;;;;;7267968;19;2004207;-78
2022/06/06 08:20:29;;;;;;;6.97;6.18;;;22.30;99.90;;;;;;7374594;19;20325;-82
2022/06/06 08:22:57;;;;;;;6.57;5.93;;;22.60;99.90;;;;;;7265142;19;2019704;-79
2022/06/06 08:25:23;;;;;;;6.30;5.70;;;22.70;99.90;;;;;;7367199;19;21602;-83
2022/06/06 08:27:50;;;;;;;6.70;6.10;;;22.40;99.90;;;;;;7366606;19;20355;-86
2022/06/06 08:30:17;;;;;;;6.68;6.07;;;22.30;99.90;;;;;;7368222;19;20432;-81
2022/06/06 08:32:42;;;;;;;5.82;5.32;;;22.50;99.90;;;;;;7368762;19;20369;-81
2022/06/06 08:35:09;;;;;;;6.57;5.97;;;22.80;99.90;;;;;;7373986;19;20981;-78
2022/06/06 08:37:54;;;;;;;5.25;4.75;;;23.20;99.90;;;;;;7370742;19;20343;-81
2022/06/06 08:40:33;;;;;;;5.78;5.00;;;23.70;99.90;;;;;;7270727;19;2005082;-80
2022/06/06 08:43:03;;;;;;;5.75;5.13;;;23.90;99.90;;;;;;7368707;19;20999;-82
2022/06/06 08:45:50;;;;;;;6.35;5.75;;;23.70;99.90;;;;;;7369769;19;20325;-78
2022/06/06 08:48:38;;;;;;;6.57;5.97;;;23.70;99.90;;;;;;7267739;19;2004880;-77
2022/06/06 08:51:24;;;;;;;5.97;5.38;;;23.90;99.90;;;;;;7366616;19;21446;-79
2022/06/06 08:54:14;;;;;;;5.70;5.20;;;24.10;99.90;;;;;;7269472;19;2004334;-79
2022/06/06 08:56:53;;;;;;;5.60;5.10;;;24.50;99.90;;;;;;7265348;19;2004369;-76
2022/06/06 08:59:31;;;;;;;5.80;5.20;;;24.70;99.90;;;;;;7370265;19;20721;-75
2022/06/06 09:02:24;;;;;;;5.50;5.00;;;24.90;99.90;;;;;;7366228;19;20446;-75
2022/06/06 09:05:21;;;;;;;5.05;4.65;;;24.60;99.90;;;;;;7266102;19;2019462;-75
2022/06/06 09:08:24;;;;;;;5.72;5.18;;;24.80;99.90;;;;;;7271241;19;2004404;-75
2022/06/06 09:11:30;;;;;;;5.60;5.10;;;24.80;99.90;;;;;;7275164;19;2004442;-75
2022/06/06 09:14:07;;;;;;;5.37;4.97;;;24.80;99.90;;;;;;7272444;19;2004687;-75
2022/06/06 09:17:02;;;;;;;5.10;4.60;;;25.00;99.90;;;;;;7374223;19;20335;-75
2022/06/06 09:19:49;;;;;;;5.03;4.63;;;25.40;99.90;;;;;;7375769;19;20348;-75
2022/06/06 09:22:17;;;;;;;5.80;4.53;;;25.80;99.90;;;;;;7271386;19;2004224;-76
2022/06/06 09:25:03;;;;;;;5.87;3.90;;;25.90;99.90;;;;;;7378429;19;20332;-76
2022/06/06 09:27:58;;;;;;;4.65;4.25;;;26.10;99.90;;;;;;7270189;19;2019818;-76
2022/06/06 09:30:29;;;;;;;5.00;4.03;;;26.50;99.90;;;;;;7273277;19;2004364;-75
2022/06/06 09:33:19;;;;;;;4.10;3.80;;;26.70;99.90;;;;;;7374185;19;20362;-75
2022/06/06 09:35:45;;;;;;;4.13;3.73;;;26.40;99.90;;;;;;7377860;19;20328;-76
2022/06/06 09:38:48;;;;;;;4.00;3.70;;;26.30;99.90;;;;;;7373179;19;20352;-76
2022/06/06 09:41:39;;;;;;;4.63;4.15;;;26.20;99.90;;;;;;7270693;19;2004789;-76
2022/06/06 09:44:35;;;;;;;4.45;4.05;;;26.40;99.90;;;;;;7373742;19;20356;-76
2022/06/06 09:47:23;;;;;;;3.97;3.60;;;26.70;99.90;;;;;;7268504;19;2004415;-77
2022/06/06 09:50:03;;;;;;;4.15;3.75;;;27.10;99.90;;;;;;7375646;19;20352;-75
2022/06/06 09:52:44;;;;;;;3.90;3.60;;;27.30;99.90;;;;;;7371856;19;20344;-76
2022/06/06 09:59:01;;;;;;;3.20;2.63;;;27.80;99.90;;;;;;7274991;19;2004744;-77
2022/06/06 10:01:54;;;;;;;2.92;2.70;;;27.70;99.90;;;;;;7271266;19;2004206;-76
2022/06/06 10:04:42;;;;;;;2.93;2.73;;;27.00;99.90;;;;;;7276182;19;2004413;-76
2022/06/06 10:07:35;;;;;;;3.10;2.85;;;27.30;99.90;;;;;;7374201;19;20365;-76
2022/06/06 10:10:36;;;;;;;2.85;2.65;;;27.30;99.90;;;;;;7272930;19;2018872;-76
2022/06/06 10:13:21;;;;;;;3.30;3.00;;;28.00;99.90;;;;;;7173278;19;2004862;-76
2022/06/06 10:15:55;;;;;;;3.20;2.90;;;28.40;99.90;;;;;;7267076;19;2005052;-76
2022/06/06 10:18:28;;;;;;;3.80;2.80;;;28.70;99.90;;;;;;7268182;19;2004552;-76
2022/06/06 10:21:14;;;;;;;2.65;2.35;;;28.90;99.90;;;;;;7370482;19;21012;-76
2022/06/06 10:24:01;;;;;;;2.30;2.20;;;28.50;99.90;;;;;;7275235;19;2004324;-76
2022/06/06 10:26:46;;;;;;;2.45;2.25;;;28.40;99.90;;;;;;7273832;19;2004862;-77
2022/06/06 10:32:29;;;;;;;2.00;1.90;;;28.20;99.90;;;;;;7270084;19;2004481;-77
2022/06/06 10:35:17;;;;;;;1.95;1.80;;;28.60;99.90;;;;;;7373684;19;20370;-76
2022/06/06 10:37:47;;;;;;;1.87;1.77;;;29.00;99.90;;;;;;7374063;19;20324;-77
2022/06/06 10:40:24;;;;;;;1.80;1.70;;;28.70;99.90;;;;;;7371991;19;20345;-77
2022/06/06 10:43:00;;;;;;;1.80;1.70;;;29.20;99.90;;;;;;7374207;19;20365;-77
2022/06/06 10:45:31;;;;;;;1.70;1.60;;;29.60;99.90;;;;;;7372244;19;20334;-77
2022/06/06 10:48:17;;;;;;;1.60;1.50;;;29.90;97.50;;;;;;7375879;19;21182;-76
2022/06/06 10:54:11;;;;;;;1.52;1.42;;;30.30;95.80;;;;;;7269493;19;2004579;-77
2022/06/06 10:57:09;;;;;;;1.70;1.60;;;30.50;94.60;;;;;;7373707;19;20333;-77
2022/06/06 10:59:47;;;;;;;1.58;1.48;;;30.40;93.50;;;;;;7271950;19;2004869;-76
2022/06/06 11:02:32;;;;;;;2.85;1.58;;;30.70;92.80;;;;;;7369734;19;20705;-76
2022/06/06 11:05:27;;;;;;;1.63;1.52;;;29.70;90.20;;;;;;7371371;19;20373;-76
2022/06/06 11:08:15;;;;;;;1.60;1.50;;;29.60;91.50;;;;;;7269847;19;2006170;-76
2022/06/06 11:10:45;;;;;;;1.73;1.63;;;30.00;91.90;;;;;;7371389;19;20404;-76
2022/06/06 11:13:17;;;;;;;1.90;1.80;;;29.70;92.80;;;;;;7373522;19;20703;-77
2022/06/06 11:16:03;;;;;;;1.70;1.60;;;29.40;91.90;;;;;;7370945;19;20356;-77
2022/06/06 11:18:52;;;;;;;1.60;1.50;;;29.60;94.10;;;;;;7371949;19;20834;-76
2022/06/06 11:21:54;;;;;;;1.40;1.30;;;29.80;92.90;;;;;;7268513;19;2004540;-76
2022/06/06 11:24:39;;;;;;;2.08;1.80;;;29.90;92.30;;;;;;7270716;19;2004118;-76
2022/06/06 11:27:35;;;;;;;1.80;1.70;;;29.60;92.10;;;;;;7370951;19;20328;-76
2022/06/06 11:30:20;;;;;;;2.00;1.53;;;29.80;92.60;;;;;;7268236;19;2004479;-76
2022/06/06 11:32:57;;;;;;;1.80;1.70;;;30.30;95.50;;;;;;7270950;19;2004408;-77
2022/06/06 11:35:41;;;;;;;1.90;1.80;;;30.30;90.90;;;;;;7371119;19;20336;-76
2022/06/06 11:39:00;;;;;;;1.92;1.77;;;30.00;90.60;;;;;;7273147;19;2004311;-76
2022/06/06 11:41:46;;;;;;;2.50;1.90;;;30.80;91.60;;;;;;7164548;19;2004475;-77
2022/06/06 11:44:30;;;;;;;2.15;1.98;;;30.50;89.60;;;;;;7374947;19;20340;-78
2022/06/06 11:47:13;;;;;;;1.90;1.80;;;29.60;90.20;;;;;;7373124;19;20344;-76
2022/06/06 11:50:06;;;;;;;1.77;1.67;;;29.30;92.20;;;;;;7272629;19;2004477;-76
2022/06/06 11:53:14;;;;;;;2.13;1.70;;;29.20;92.30;;;;;;7268746;19;2004771;-76
2022/06/06 11:55:43;;;;;;;2.00;1.90;;;29.10;92.50;;;;;;7269445;19;2004318;-76
2022/06/06 11:58:39;;;;;;;1.80;1.70;;;29.00;93.80;;;;;;7375767;19;21378;-76
2022/06/06 12:01:11;;;;;;;1.70;1.60;;;29.10;93.10;;;;;;7269827;19;2019958;-76
2022/06/06 12:04:19;;;;;;;1.90;1.80;;;29.10;93.00;;;;;;7375519;19;20371;-76
2022/06/06 12:07:05;;;;;;;2.03;1.88;;;28.80;93.30;;;;;;7265879;19;2004448;-77
2022/06/06 12:09:33;;;;;;;1.73;1.50;;;28.40;92.90;;;;;;7374648;19;20447;-75
2022/06/06 12:12:27;;;;;;;2.15;1.95;;;28.50;95.50;;;;;;7368607;19;20363;-76
2022/06/06 12:15:21;;;;;;;1.83;1.60;;;28.50;95.90;;;;;;7270073;19;2004421;-76
2022/06/06 12:18:01;;;;;;;2.03;1.92;;;28.40;96.50;;;;;;7272050;19;2004517;-76
2022/06/06 12:20:47;;;;;;;1.77;1.67;;;28.40;96.00;;;;;;7371629;19;20705;-75
2022/06/06 12:23:17;;;;;;;1.80;1.70;;;28.40;95.40;;;;;;7356602;19;20374;-76
2022/06/06 12:26:14;;;;;;;1.52;1.42;;;28.20;94.80;;;;;;7367292;19;21182;-76
2022/06/06 12:29:16;;;;;;;1.60;1.50;;;28.10;95.30;;;;;;7253802;19;2004679;-75
2022/06/06 12:32:05;;;;;;;1.58;1.30;;;27.80;96.90;;;;;;7259757;19;2005026;-75
2022/06/06 12:34:53;;;;;;;1.30;1.25;;;27.60;96.70;;;;;;7271118;19;2004812;-75
2022/06/06 12:37:31;;;;;;;1.50;1.40;;;27.50;95.90;;;;;;7369649;19;20360;-76
2022/06/06 12:40:12;;;;;;;1.63;1.52;;;27.50;98.10;;;;;;7373288;19;20361;-75
2022/06/06 12:43:00;;;;;;;1.50;1.40;;;27.70;99.00;;;;;;7353416;19;20376;-75
2022/06/06 12:45:53;;;;;;;1.42;1.40;;;27.90;96.80;;;;;;7256910;19;2005493;-75
2022/06/06 12:48:28;;;;;;;1.57;1.47;;;27.70;97.30;;;;;;7255551;19;2004511;-75
2022/06/06 12:51:06;;;;;;;1.50;1.40;;;27.60;97.50;;;;;;7362150;19;20340;-75
2022/06/06 12:54:05;;;;;;;2.13;1.95;;;28.30;98.50;;;;;;7356282;19;20979;-76
2022/06/06 12:56:57;;;;;;;1.50;1.40;;;29.10;96.30;;;;;;7254840;19;2004897;-77
2022/06/06 12:59:25;;;;;;;1.42;1.25;;;29.70;96.50;;;;;;7359760;19;20605;-76
2022/06/06 13:02:19;;;;;;;1.45;1.35;;;29.70;94.40;;;;;;7360524;19;20470;-76
2022/06/06 13:05:02;;;;;;;1.48;1.38;;;29.90;95.50;;;;;;7261397;19;2004498;-77
2022/06/06 13:07:53;;;;;;;1.50;1.40;;;30.10;93.90;;;;;;7259282;19;2004331;-76
2022/06/06 13:10:56;;;;;;;1.45;1.35;;;29.40;91.50;;;;;;7271564;19;2004535;-76
2022/06/06 13:13:26;;;;;;;1.63;1.52;;;28.80;92.50;;;;;;7275851;19;2004317;-75
2022/06/06 13:16:25;;;;;;;1.70;1.30;;;28.80;93.80;;;;;;7377043;19;20370;-75
2022/06/06 13:19:03;;;;;;;1.20;1.20;;;28.90;94.00;;;;;;7272995;19;2004318;-75
2022/06/06 13:21:46;;;;;;;1.50;1.40;;;29.20;93.20;;;;;;7371740;19;20390;-74
2022/06/06 13:24:31;;;;;;;1.98;1.38;;;29.20;92.00;;;;;;7271150;19;2004386;-74
2022/06/06 13:27:22;;;;;;;1.50;1.40;;;29.10;92.60;;;;;;7270390;19;2004838;-74
2022/06/06 13:29:47;;;;;;;1.50;1.40;;;29.20;94.10;;;;;;7374317;19;20859;-74
2022/06/06 13:32:34;;;;;;;1.60;1.50;;;29.30;93.30;;;;;;7372146;19;20356;-74
2022/06/06 13:35:18;;;;;;;1.60;1.50;;;29.00;92.10;;;;;;7372224;19;20385;-74
2022/06/06 13:38:10;;;;;;;1.20;1.20;;;28.50;93.50;;;;;;7377808;19;20347;-75
2022/06/06 13:40:48;;;;;;;1.90;1.40;;;28.50;93.00;;;;;;7274573;19;2004299;-75
2022/06/06 13:43:35;;;;;;;1.27;1.23;;;29.00;92.10;;;;;;7376511;19;20372;-75
2022/06/06 13:46:22;;;;;;;1.20;1.20;;;29.40;92.30;;;;;;7379557;19;20321;-75
2022/06/06 13:49:19;;;;;;;1.20;1.20;;;30.10;91.50;;;;;;7377668;19;20323;-75
2022/06/06 13:51:55;;;;;;;1.30;1.30;;;30.60;90.90;;;;;;7273870;19;2004402;-75
2022/06/06 13:54:26;;;;;;;1.30;1.20;;;30.90;91.20;;;;;;7377214;19;20355;-75
2022/06/06 13:57:31;;;;;;;1.40;1.30;;;30.90;87.30;;;;;;7376196;19;20356;-75
2022/06/06 13:59:57;;;;;;;1.38;1.27;;;30.80;91.00;;;;;;7272847;19;2004929;-75
2022/06/06 14:02:37;;;;;;;1.57;1.47;;;31.20;90.20;;;;;;7370513;19;20353;-75
2022/06/06 14:05:09;;;;;;;1.58;1.48;;;31.50;89.80;;;;;;7377072;19;20341;-75